Time;durP1;ratioP1;P1;durP2;ratioP2;P2;SDS_P1;SDS_P2;PMS_P1;PMS_P2;Temp;Humidity;BMP_temperature;BMP_pressure;BME280_temperature;BME280_humidity;BME280_pressure;Samples;Min_cycle;Max_cycle;Signal;HPM_P1;HPM_P2
2023/08/07 00:00:45;;;;;;;367.88;213.63;;;;;;;11.04;100.00;101691.03;5073300;28;20589;-78
2023/08/07 00:03:11;;;;;;;365.23;213.15;;;;;;;10.92;100.00;101710.09;5072602;28;20032;-79
2023/08/07 00:05:37;;;;;;;359.30;209.45;;;;;;;10.55;100.00;101680.66;5056714;28;20117;-77
2023/08/07 00:08:02;;;;;;;361.17;211.88;;;;;;;10.47;100.00;101708.31;5051852;28;20368;-78
2023/08/07 00:10:28;;;;;;;355.80;210.80;;;;;;;10.16;100.00;101678.22;5036500;28;20181;-77
2023/08/07 00:12:54;;;;;;;366.88;216.70;;;;;;;9.95;100.00;101672.22;5036024;28;20029;-76
2023/08/07 00:15:19;;;;;;;365.67;217.65;;;;;;;9.89;100.00;101700.53;5055555;28;20383;-77
2023/08/07 00:17:45;;;;;;;361.40;215.60;;;;;;;9.76;100.00;101694.66;5056232;28;20024;-77
2023/08/07 00:20:10;;;;;;;361.52;216.20;;;;;;;9.76;100.00;101700.88;5072960;28;20032;-76
2023/08/07 00:22:36;;;;;;;362.30;215.65;;;;;;;9.57;100.00;101661.50;5072272;28;20036;-77
2023/08/07 00:25:02;;;;;;;362.80;216.45;;;;;;;9.69;100.00;101692.56;5071540;28;20445;-77
2023/08/07 00:27:27;;;;;;;363.25;218.55;;;;;;;9.65;100.00;101688.47;5034549;28;20032;-76
2023/08/07 00:29:53;;;;;;;367.33;221.35;;;;;;;9.64;100.00;101691.31;5039942;28;20139;-76
2023/08/07 00:32:19;;;;;;;364.20;219.63;;;;;;;9.58;100.00;101687.38;5066390;28;20035;-77
2023/08/07 00:34:44;;;;;;;367.30;220.43;;;;;;;9.53;100.00;101688.81;5071830;28;20047;-76
2023/08/07 00:37:10;;;;;;;365.83;220.05;;;;;;;9.42;100.00;101687.13;5051788;28;20039;-77
2023/08/07 00:39:36;;;;;;;366.48;221.02;;;;;;;9.36;100.00;101685.88;5037754;28;20028;-77
2023/08/07 00:42:01;;;;;;;370.35;223.85;;;;;;;9.32;100.00;101687.19;5053284;28;20395;-76
2023/08/07 00:44:27;;;;;;;361.15;219.50;;;;;;;9.24;100.00;101687.91;5056121;28;20056;-77
2023/08/07 00:46:54;;;;;;;361.77;220.38;;;;;;;9.21;100.00;101693.56;5039501;28;20536;-76
2023/08/07 00:49:20;;;;;;;373.42;226.13;;;;;;;9.16;100.00;101686.94;5023021;28;20036;-77
2023/08/07 00:51:46;;;;;;;372.20;226.57;;;;;;;9.10;100.00;101687.50;5071617;28;20029;-76
2023/08/07 00:54:14;;;;;;;370.73;227.80;;;;;;;9.07;100.00;101687.78;5071269;28;20095;-76
2023/08/07 00:56:40;;;;;;;372.05;227.73;;;;;;;9.06;100.00;101691.47;5072477;28;20028;-76
2023/08/07 00:59:06;;;;;;;372.63;227.98;;;;;;;8.97;100.00;101693.16;5071557;28;20379;-76
2023/08/07 01:01:32;;;;;;;366.55;224.38;;;;;;;8.90;100.00;101698.25;5071697;28;20029;-77
2023/08/07 01:03:57;;;;;;;370.50;225.95;;;;;;;8.92;100.00;101679.34;5070822;28;20032;-77
2023/08/07 01:06:23;;;;;;;365.63;224.50;;;;;;;8.91;100.00;101651.66;5071609;28;20036;-77
2023/08/07 01:08:49;;;;;;;369.00;224.90;;;;;;;9.27;100.00;101683.25;5072347;28;20594;-77
2023/08/07 01:11:35;;;;;;;369.80;225.65;;;;;;;9.42;100.00;101682.63;5055206;28;20040;-76
2023/08/07 01:14:12;;;;;;;362.52;223.80;;;;;;;9.55;100.00;101693.06;5071042;28;20063;-77
2023/08/07 01:16:46;;;;;;;355.45;218.07;;;;;;;9.67;100.00;101682.97;5072620;28;20039;-76
2023/08/07 01:19:23;;;;;;;365.23;222.93;;;;;;;9.75;100.00;101690.28;5056366;28;20063;-76
2023/08/07 01:21:49;;;;;;;365.55;223.48;;;;;;;9.83;100.00;101685.03;5055153;28;20041;-76
2023/08/07 01:24:15;;;;;;;362.92;221.07;;;;;;;9.89;100.00;101690.63;5072349;28;20040;-76
2023/08/07 01:26:42;;;;;;;362.08;219.77;;;;;;;9.96;100.00;101690.06;5071630;28;20043;-77
2023/08/07 01:29:27;;;;;;;357.17;216.90;;;;;;;10.11;100.00;101697.47;5055458;28;20501;-76
2023/08/07 01:31:54;;;;;;;366.73;220.32;;;;;;;10.14;100.00;101688.25;5022554;28;20044;-76
2023/08/07 01:34:22;;;;;;;361.92;216.85;;;;;;;10.16;100.00;101680.03;5050961;28;20037;-77
2023/08/07 01:36:49;;;;;;;362.50;217.93;;;;;;;10.19;100.00;101677.91;5019255;28;20040;-76
2023/08/07 01:39:15;;;;;;;362.40;217.27;;;;;;;10.13;100.00;101670.44;5051577;28;20031;-76
2023/08/07 01:41:41;;;;;;;365.52;218.68;;;;;;;10.15;100.00;101665.75;5069569;28;20532;-76
2023/08/07 01:44:07;;;;;;;361.92;216.20;;;;;;;10.07;100.00;101655.75;5075311;28;20036;-76
2023/08/07 01:46:32;;;;;;;354.55;211.55;;;;;;;10.18;100.00;101670.81;5038671;28;20513;-76
2023/08/07 01:48:58;;;;;;;359.52;214.55;;;;;;;10.22;100.00;101669.53;5027174;28;20021;-76
2023/08/07 01:51:24;;;;;;;365.77;217.00;;;;;;;10.25;100.00;101665.72;5068439;28;20096;-76
2023/08/07 01:53:50;;;;;;;367.35;216.90;;;;;;;10.30;100.00;101660.75;5075903;28;20052;-76
2023/08/07 01:56:16;;;;;;;362.80;214.23;;;;;;;10.26;100.00;101648.56;5041430;28;20075;-77
2023/08/07 01:58:41;;;;;;;362.17;214.70;;;;;;;10.40;100.00;101666.91;5038772;28;20453;-76
2023/08/07 02:01:07;;;;;;;359.35;213.00;;;;;;;10.44;100.00;101656.69;5066847;28;20032;-76
2023/08/07 02:03:32;;;;;;;362.05;213.65;;;;;;;10.57;100.00;101663.38;5038070;28;20051;-76
2023/08/07 02:05:59;;;;;;;361.15;213.10;;;;;;;10.70;100.00;101670.22;5038772;28;20033;-76
2023/08/07 02:08:24;;;;;;;362.77;214.00;;;;;;;10.77;100.00;101669.44;5060424;28;20039;-77
2023/08/07 02:10:50;;;;;;;368.35;214.65;;;;;;;10.79;100.00;101672.81;5058331;28;20031;-78
2023/08/07 02:13:15;;;;;;;364.10;214.00;;;;;;;10.80;100.00;101668.28;5041091;28;20418;-77
2023/08/07 02:15:41;;;;;;;367.02;216.30;;;;;;;10.70;100.00;101641.47;5057712;28;20033;-76
2023/08/07 02:18:06;;;;;;;370.98;218.63;;;;;;;10.81;100.00;101643.06;5058862;28;20032;-77
2023/08/07 02:20:32;;;;;;;369.73;216.23;;;;;;;10.77;100.00;101633.63;5058157;28;20471;-76
2023/08/07 02:22:58;;;;;;;368.00;217.10;;;;;;;10.66;100.00;101615.03;5074181;28;20433;-76
2023/08/07 02:25:23;;;;;;;366.85;216.48;;;;;;;10.75;100.00;101635.63;5076095;28;20122;-76
2023/08/07 02:27:49;;;;;;;376.48;220.65;;;;;;;10.73;100.00;101627.69;5074919;28;20483;-76
2023/08/07 02:30:14;;;;;;;378.55;222.65;;;;;;;10.73;100.00;101632.25;5074192;28;20036;-76
2023/08/07 02:32:42;;;;;;;377.92;221.27;;;;;;;10.78;100.00;101632.63;5057128;28;20016;-76
2023/08/07 02:35:08;;;;;;;373.20;220.38;;;;;;;10.77;100.00;101629.09;5076155;28;20035;-77
2023/08/07 02:37:34;;;;;;;377.55;222.82;;;;;;;10.79;100.00;101620.84;5074675;28;20028;-77
2023/08/07 02:39:59;;;;;;;383.30;225.23;;;;;;;10.81;100.00;101626.94;5075103;28;20111;-76
2023/08/07 02:42:25;;;;;;;391.38;231.00;;;;;;;10.68;100.00;101596.91;5058246;28;20028;-76
2023/08/07 02:44:50;;;;;;;391.05;229.85;;;;;;;10.82;100.00;101617.00;5076039;28;20378;-76
2023/08/07 02:47:16;;;;;;;394.33;232.52;;;;;;;10.84;100.00;101623.91;5058006;28;20033;-79
2023/08/07 02:49:42;;;;;;;382.98;225.38;;;;;;;10.86;100.00;101631.84;5039581;28;20391;-76
2023/08/07 02:52:07;;;;;;;385.92;229.13;;;;;;;10.89;100.00;101628.84;5036964;28;20113;-77
2023/08/07 02:54:33;;;;;;;383.65;226.13;;;;;;;10.92;100.00;101625.84;5037642;28;20033;-76
2023/08/07 02:56:58;;;;;;;382.55;227.98;;;;;;;10.95;100.00;101620.97;5038775;28;20037;-77
2023/08/07 02:59:24;;;;;;;387.70;228.57;;;;;;;10.95;100.00;101617.44;5042162;28;20451;-77
2023/08/07 03:01:50;;;;;;;390.77;231.68;;;;;;;10.95;100.00;101623.66;5073104;28;20035;-77
2023/08/07 03:04:16;;;;;;;376.83;221.70;;;;;;;10.94;100.00;101630.06;5074254;28;20442;-76
2023/08/07 03:06:41;;;;;;;369.33;216.43;;;;;;;10.86;100.00;101607.63;5041143;28;20459;-76
2023/08/07 03:09:07;;;;;;;383.55;222.95;;;;;;;11.00;100.00;101623.19;5071922;28;20070;-77
2023/08/07 03:11:33;;;;;;;370.33;217.77;;;;;;;10.91;100.00;101611.53;5050306;28;20037;-77
2023/08/07 03:13:58;;;;;;;375.73;221.40;;;;;;;10.92;100.00;101609.69;5037774;28;20033;-76
2023/08/07 03:16:24;;;;;;;382.38;226.10;;;;;;;11.09;100.00;101613.34;5071384;28;20052;-77
2023/08/07 03:18:49;;;;;;;378.95;223.57;;;;;;;11.04;100.00;101602.22;5055375;28;20106;-77
2023/08/07 03:21:15;;;;;;;380.38;223.07;;;;;;;11.14;100.00;101613.69;5067758;28;20021;-77
2023/08/07 03:23:41;;;;;;;380.70;223.23;;;;;;;11.14;100.00;101611.88;5074185;28;20039;-76
2023/08/07 03:26:12;;;;;;;382.17;222.32;;;;;;;11.15;100.00;101607.31;5053033;28;20036;-78
2023/08/07 03:28:38;;;;;;;392.33;230.38;;;;;;;11.17;100.00;101610.72;5057199;28;20097;-77
2023/08/07 03:31:04;;;;;;;386.85;225.70;;;;;;;11.18;100.00;101607.00;5073548;28;20162;-77
2023/08/07 03:33:30;;;;;;;390.75;228.88;;;;;;;11.21;100.00;101601.28;5057365;28;20036;-77
2023/08/07 03:35:56;;;;;;;387.73;227.10;;;;;;;11.28;100.00;101594.28;5052578;28;20032;-76
2023/08/07 03:38:21;;;;;;;390.48;227.80;;;;;;;11.24;100.00;101574.06;5026244;28;20041;-76
2023/08/07 03:40:47;;;;;;;382.10;222.23;;;;;;;11.20;100.00;101578.09;5063075;28;20043;-76
2023/08/07 03:43:12;;;;;;;378.75;221.00;;;;;;;11.28;100.00;101579.97;5074502;28;20028;-77
2023/08/07 03:45:39;;;;;;;384.55;225.23;;;;;;;11.32;100.00;101574.09;5072701;28;20033;-76
2023/08/07 03:48:05;;;;;;;384.20;224.68;;;;;;;11.31;100.00;101574.28;5038380;28;20091;-78
2023/08/07 03:50:34;;;;;;;373.80;219.07;;;;;;;11.31;100.00;101560.81;5051079;28;20054;-78
2023/08/07 03:53:01;;;;;;;379.65;221.88;;;;;;;11.40;100.00;101578.69;5048036;28;20087;-77
2023/08/07 03:55:26;;;;;;;379.73;222.32;;;;;;;11.41;100.00;101565.06;5049139;28;20463;-76
2023/08/07 03:57:52;;;;;;;385.58;225.85;;;;;;;11.47;100.00;101579.72;5055436;28;20039;-76
2023/08/07 04:00:18;;;;;;;391.15;228.60;;;;;;;11.56;100.00;101575.22;5053735;28;20451;-77
2023/08/07 04:02:44;;;;;;;378.90;219.50;;;;;;;11.55;100.00;101571.69;5035099;28;20044;-77
2023/08/07 04:05:10;;;;;;;383.25;221.75;;;;;;;11.58;100.00;101565.13;5037168;28;20048;-76
2023/08/07 04:07:36;;;;;;;390.58;226.20;;;;;;;11.63;100.00;101568.19;5069306;28;20034;-78
2023/08/07 04:10:02;;;;;;;396.25;229.82;;;;;;;11.62;100.00;101569.19;5050217;28;20049;-78
2023/08/07 04:12:28;;;;;;;395.80;230.85;;;;;;;11.58;100.00;101559.75;5056895;28;20028;-77
2023/08/07 04:14:53;;;;;;;393.67;226.65;;;;;;;11.62;100.00;101571.88;5039376;28;20430;-79
2023/08/07 04:17:19;;;;;;;385.40;224.90;;;;;;;11.62;100.00;101577.28;5036602;28;20044;-76
2023/08/07 04:19:48;;;;;;;379.80;220.18;;;;;;;11.54;100.00;101563.78;5038788;28;20036;-76
2023/08/07 04:22:13;;;;;;;387.13;223.65;;;;;;;11.53;100.00;101557.53;5070536;28;20082;-76
2023/08/07 04:24:39;;;;;;;374.48;217.02;;;;;;;11.56;100.00;101562.56;5055963;28;20060;-85
2023/08/07 04:27:05;;;;;;;381.40;221.27;;;;;;;11.54;100.00;101561.94;5038078;28;20121;-86
2023/08/07 04:29:30;;;;;;;381.95;221.65;;;;;;;11.48;100.00;101570.63;5071118;28;20108;-84
2023/08/07 04:31:56;;;;;;;373.90;218.27;;;;;;;11.43;100.00;101565.75;5050453;28;20409;-85
2023/08/07 04:34:22;;;;;;;385.88;224.38;;;;;;;11.44;100.00;101564.72;5052041;28;20044;-85
2023/08/07 04:36:47;;;;;;;382.08;221.35;;;;;;;11.47;100.00;101563.56;5035636;28;20033;-85
2023/08/07 04:39:13;;;;;;;383.88;224.50;;;;;;;11.43;100.00;101549.59;5058377;28;20085;-84
2023/08/07 04:41:39;;;;;;;387.88;227.57;;;;;;;11.40;100.00;101541.81;5073277;28;20107;-84
2023/08/07 04:44:04;;;;;;;382.77;223.85;;;;;;;11.57;100.00;101566.16;5055897;28;20178;-85
2023/08/07 04:46:30;;;;;;;379.50;220.27;;;;;;;11.50;100.00;101552.47;5052467;28;20383;-85
2023/08/07 04:48:56;;;;;;;379.65;222.98;;;;;;;11.42;100.00;101523.66;5053434;28;20091;-84
2023/08/07 04:51:22;;;;;;;376.90;220.88;;;;;;;11.48;100.00;101538.31;5045832;28;20526;-83
2023/08/07 04:53:50;;;;;;;381.05;224.05;;;;;;;11.54;100.00;101553.84;5072188;28;20182;-84
2023/08/07 04:56:17;;;;;;;380.42;222.52;;;;;;;11.63;100.00;101568.19;5073620;28;20027;-86
2023/08/07 04:58:43;;;;;;;383.35;225.05;;;;;;;11.55;100.00;101543.91;5072245;28;20167;-85
2023/08/07 05:01:09;;;;;;;365.50;213.98;;;;;;;11.52;100.00;101538.84;5055149;28;20111;-84
2023/08/07 05:03:34;;;;;;;376.45;219.15;;;;;;;11.45;100.00;101538.66;5055794;28;20486;-85
2023/08/07 05:06:00;;;;;;;373.15;218.82;;;;;;;11.40;100.00;101535.59;5035295;28;20071;-84
2023/08/07 05:08:27;;;;;;;378.17;220.52;;;;;;;11.60;100.00;101565.81;5052525;28;20037;-85
2023/08/07 05:10:52;;;;;;;376.48;220.90;;;;;;;11.59;100.00;101556.03;5021487;28;20040;-84
2023/08/07 05:13:18;;;;;;;371.55;217.93;;;;;;;11.43;100.00;101519.97;5053547;28;20033;-85
2023/08/07 05:15:43;;;;;;;373.98;219.15;;;;;;;11.56;100.00;101535.66;5035733;28;20087;-86
2023/08/07 05:18:09;;;;;;;375.10;219.48;;;;;;;11.55;100.00;101542.06;5040032;28;20029;-85
2023/08/07 05:20:35;;;;;;;378.05;221.68;;;;;;;11.43;100.00;101522.66;5058956;28;20029;-85
2023/08/07 05:23:00;;;;;;;376.27;219.77;;;;;;;11.52;100.00;101547.78;5043419;28;20032;-87
2023/08/07 05:25:26;;;;;;;374.70;219.20;;;;;;;11.47;100.00;101530.41;5071430;28;20032;-87
2023/08/07 05:27:52;;;;;;;372.23;218.57;;;;;;;11.35;100.00;101516.38;5059288;28;20028;-88
2023/08/07 05:30:18;;;;;;;379.02;221.60;;;;;;;11.42;100.00;101536.28;5058510;28;20037;-87
2023/08/07 05:32:44;;;;;;;384.48;223.40;;;;;;;11.38;100.00;101527.69;5075997;28;20033;-88
2023/08/07 05:35:10;;;;;;;374.77;220.55;;;;;;;11.60;100.00;101552.34;5057994;28;20097;-88
2023/08/07 05:37:36;;;;;;;380.42;223.40;;;;;;;11.60;100.00;101546.97;5041131;28;20036;-87
2023/08/07 05:40:02;;;;;;;387.05;227.48;;;;;;;11.66;100.00;101547.13;5059702;28;20032;-88
2023/08/07 05:42:28;;;;;;;381.02;224.63;;;;;;;11.53;100.00;101513.59;5040388;28;20024;-87
2023/08/07 05:44:58;;;;;;;372.38;219.00;;;;;;;11.73;100.00;101539.25;5054487;28;20155;-89
2023/08/07 05:47:24;;;;;;;381.73;225.02;;;;;;;11.75;100.00;101539.94;5056686;28;20028;-88
2023/08/07 05:49:50;;;;;;;375.60;220.13;;;;;;;11.79;100.00;101537.75;5059149;28;20036;-87
2023/08/07 05:52:17;;;;;;;375.05;220.32;;;;;;;11.69;100.00;101518.19;5075702;28;20553;-88
2023/08/07 05:54:43;;;;;;;380.15;222.02;;;;;;;11.78;100.00;101533.38;5038634;28;20037;-88
2023/08/07 05:57:09;;;;;;;376.30;220.23;;;;;;;11.88;100.00;101543.03;5056841;28;20037;-87
2023/08/07 05:59:35;;;;;;;381.50;222.82;;;;;;;11.91;100.00;101527.50;5030980;28;20041;-87
2023/08/07 06:02:02;;;;;;;380.83;222.27;;;;;;;12.03;100.00;101532.44;5041350;28;20036;-88
2023/08/07 06:04:27;;;;;;;374.80;217.43;;;;;;;12.13;100.00;101540.38;5070520;28;20057;-87
2023/08/07 06:06:53;;;;;;;370.77;214.38;;;;;;;11.93;100.00;101487.78;5079308;28;20058;-90
2023/08/07 06:09:20;;;;;;;367.65;212.80;;;;;;;12.13;100.00;101510.72;5059132;28;20387;-87
2023/08/07 06:11:46;;;;;;;372.77;215.80;;;;;;;12.06;100.00;101482.72;5075736;28;20127;-87
2023/08/07 06:14:12;;;;;;;364.60;209.32;;;;;;;12.48;100.00;101535.66;5054143;28;20037;-88
2023/08/07 06:16:38;;;;;;;371.63;213.05;;;;;;;12.54;100.00;101508.00;5071076;28;20037;-87
2023/08/07 06:19:04;;;;;;;373.45;213.15;;;;;;;12.75;100.00;101502.94;5075161;28;20039;-87
2023/08/07 06:21:30;;;;;;;369.30;211.50;;;;;;;13.00;100.00;101527.16;5075490;28;20020;-88
2023/08/07 06:23:56;;;;;;;375.38;212.85;;;;;;;13.02;100.00;101516.16;5058381;28;20032;-88
2023/08/07 06:26:23;;;;;;;377.67;214.48;;;;;;;13.06;100.00;101529.16;5058178;28;20479;-87
2023/08/07 06:28:48;;;;;;;371.55;210.70;;;;;;;13.02;100.00;101525.13;5057984;28;20090;-87
2023/08/07 06:31:15;;;;;;;372.38;211.82;;;;;;;13.07;100.00;101528.16;5058652;28;20127;-87
2023/08/07 06:33:41;;;;;;;370.08;209.35;;;;;;;13.12;100.00;101512.25;5025605;28;20037;-87
2023/08/07 06:36:08;;;;;;;371.17;209.35;;;;;;;13.18;100.00;101508.88;5058113;28;20032;-87
2023/08/07 06:38:35;;;;;;;298.13;170.32;;;;;;;13.35;100.00;101519.63;5074746;28;20499;-88
2023/08/07 06:41:00;;;;;;;293.27;166.88;;;;;;;13.34;100.00;101509.84;5075964;28;20028;-87
2023/08/07 06:43:26;;;;;;;304.15;171.32;;;;;;;13.55;100.00;101520.91;5057481;28;20047;-87
2023/08/07 06:45:53;;;;;;;290.13;164.10;;;;;;;13.41;100.00;101478.41;5074539;28;20028;-87
2023/08/07 06:48:19;;;;;;;289.80;165.27;;;;;;;13.73;100.00;101517.91;5074033;28;20033;-87
2023/08/07 06:50:49;;;;;;;289.80;164.70;;;;;;;13.77;100.00;101526.50;5058269;28;20036;-88
2023/08/07 06:53:15;;;;;;;299.08;169.32;;;;;;;13.60;100.00;101496.03;5025274;28;20059;-87
2023/08/07 06:55:46;;;;;;;296.58;166.98;;;;;;;13.87;100.00;101521.72;5058080;28;20075;-88
2023/08/07 06:58:12;;;;;;;348.65;195.43;;;;;;;14.04;100.00;101534.09;5024941;28;20044;-88
2023/08/07 07:00:38;;;;;;;348.88;194.05;;;;;;;13.91;100.00;101485.19;5041083;28;20378;-87
2023/08/07 07:03:04;;;;;;;313.88;175.90;;;;;;;13.94;100.00;101476.72;5041248;28;20074;-87
2023/08/07 07:05:30;;;;;;;355.13;198.00;;;;;;;14.25;100.00;101514.50;5075014;28;20032;-88
2023/08/07 07:07:57;;;;;;;366.55;202.07;;;;;;;14.40;100.00;101524.53;5025430;28;20086;-88
2023/08/07 07:10:23;;;;;;;309.65;173.32;;;;;;;14.37;100.00;101525.75;5057294;28;20082;-88
2023/08/07 07:12:48;;;;;;;306.85;171.68;;;;;;;14.25;100.00;101498.28;5053552;28;20033;-88
2023/08/07 07:15:14;;;;;;;310.45;173.40;;;;;;;14.69;100.00;101537.34;5072343;28;20066;-87
2023/08/07 07:17:40;;;;;;;371.13;204.88;;;;;;;15.14;100.00;101524.69;5037767;28;20029;-90
2023/08/07 07:20:09;;;;;;;383.48;208.10;;;;;;;15.73;100.00;101529.19;5037889;28;20116;-88
2023/08/07 07:22:34;;;;;;;378.42;205.95;;;;;;;16.26;100.00;101525.16;5021245;28;20150;-87
2023/08/07 07:25:02;;;;;;;402.63;216.13;;;;;;;16.64;100.00;101529.44;5021049;28;20045;-89
2023/08/07 07:27:27;;;;;;;409.77;216.25;;;;;;;16.85;100.00;101517.72;5037254;28;20037;-88
2023/08/07 07:29:53;;;;;;;422.35;222.05;;;;;;;17.86;100.00;101531.63;5051353;28;20029;-87
2023/08/07 07:32:19;;;;;;;433.85;224.18;;;;;;;18.33;95.44;101527.06;5050943;28;20452;-84
2023/08/07 07:34:45;;;;;;;423.08;219.30;;;;;;;18.11;94.27;101526.44;5072857;28;20124;-87
2023/08/07 07:37:10;;;;;;;435.83;223.60;;;;;;;17.85;92.00;101535.38;5056767;28;20033;-88
2023/08/07 07:39:36;;;;;;;426.92;219.68;;;;;;;17.71;93.16;101525.47;5073411;28;20064;-87
2023/08/07 07:42:04;;;;;;;431.42;220.32;;;;;;;18.00;92.52;101527.03;5056973;28;20031;-87
2023/08/07 07:44:30;;;;;;;437.25;222.98;;;;;;;17.88;94.90;101507.75;5053873;28;20058;-86
2023/08/07 07:46:55;;;;;;;437.40;222.75;;;;;;;17.82;92.76;101497.69;5020838;28;20447;-85
2023/08/07 07:49:21;;;;;;;438.17;222.93;;;;;;;17.60;91.99;101518.75;5053672;28;20423;-85
2023/08/07 07:51:46;;;;;;;429.60;220.35;;;;;;;17.07;93.07;101529.38;5038948;28;20493;-87
2023/08/07 07:54:12;;;;;;;435.08;222.88;;;;;;;16.67;95.67;101515.47;5073237;28;20085;-86
2023/08/07 07:56:38;;;;;;;438.17;224.15;;;;;;;16.60;96.97;101510.00;5073389;28;20072;-86
2023/08/07 07:59:03;;;;;;;430.88;221.43;;;;;;;16.83;95.40;101522.50;5056409;28;20051;-85
2023/08/07 08:01:29;;;;;;;426.65;219.43;;;;;;;17.04;94.19;101527.03;5070923;28;20029;-87
2023/08/07 08:03:55;;;;;;;436.13;224.18;;;;;;;17.07;93.71;101502.19;5054018;28;20132;-85
2023/08/07 08:06:20;;;;;;;430.65;222.57;;;;;;;17.22;92.26;101493.88;5038077;28;20031;-86
2023/08/07 08:08:46;;;;;;;436.15;224.07;;;;;;;17.49;92.22;101508.44;5054621;28;20033;-85
2023/08/07 08:11:12;;;;;;;437.65;224.88;;;;;;;17.77;91.26;101513.75;5070574;28;20414;-84
2023/08/07 08:13:39;;;;;;;441.13;226.02;;;;;;;17.80;88.47;101514.22;5037563;28;20028;-85
2023/08/07 08:16:05;;;;;;;434.67;222.80;;;;;;;17.72;88.66;101508.09;5039134;28;20036;-84
2023/08/07 08:18:31;;;;;;;431.63;221.23;;;;;;;17.86;87.47;101503.56;5039917;28;20109;-84
2023/08/07 08:20:57;;;;;;;429.83;220.35;;;;;;;18.01;86.69;101507.78;5056491;28;20467;-84
2023/08/07 08:23:22;;;;;;;431.23;220.70;;;;;;;18.48;85.52;101501.53;5056058;28;20033;-84
2023/08/07 08:25:49;;;;;;;429.67;219.05;;;;;;;18.64;82.63;101495.66;5056209;28;20040;-85
2023/08/07 08:28:14;;;;;;;437.45;221.82;;;;;;;18.77;81.21;101495.66;5039752;28;20510;-85
2023/08/07 08:30:40;;;;;;;444.33;224.70;;;;;;;18.64;79.22;101462.97;5039756;28;20119;-84
2023/08/07 08:33:06;;;;;;;436.10;220.60;;;;;;;18.85;78.26;101510.97;5072901;28;20041;-85
2023/08/07 08:35:32;;;;;;;443.55;223.40;;;;;;;19.00;79.19;101507.97;5040095;28;20032;-85
2023/08/07 08:37:57;;;;;;;442.00;221.77;;;;;;;19.13;77.35;101469.78;5056796;28;20442;-84
2023/08/07 08:40:24;;;;;;;443.38;222.32;;;;;;;19.37;75.85;101481.00;5047839;28;20056;-84
2023/08/07 08:42:53;;;;;;;423.23;212.23;;;;;;;19.71;74.89;101490.72;5043154;28;20036;-85
2023/08/07 08:45:20;;;;;;;438.35;219.18;;;;;;;19.97;72.38;101506.94;5056878;28;20040;-85
2023/08/07 08:48:10;;;;;;;418.15;211.10;;;;;;;19.88;72.54;101456.41;5072659;28;20036;-85
2023/08/07 08:50:36;;;;;;;428.27;213.40;;;;;;;20.40;69.85;101489.84;5043973;28;20467;-84
2023/08/07 08:53:02;;;;;;;423.33;210.40;;;;;;;20.72;67.76;101464.34;5042445;28;20433;-85
2023/08/07 08:55:28;;;;;;;421.27;209.55;;;;;;;20.86;66.44;101488.56;5039628;28;20458;-85
2023/08/07 08:57:54;;;;;;;420.70;208.55;;;;;;;20.55;66.43;101453.16;5039616;28;20079;-85
2023/08/07 09:00:21;;;;;;;432.45;213.70;;;;;;;20.66;67.89;101457.03;5072142;28;20065;-84
2023/08/07 09:02:48;;;;;;;421.73;209.50;;;;;;;20.37;66.67;101448.47;5055844;28;20036;-85
2023/08/07 09:05:16;;;;;;;421.98;209.85;;;;;;;20.67;68.51;101484.16;5039300;28;20206;-84
2023/08/07 09:07:42;;;;;;;416.55;206.70;;;;;;;20.73;67.79;101482.41;5055790;28;20437;-85
2023/08/07 09:10:09;;;;;;;421.30;209.38;;;;;;;20.88;65.58;101488.38;5055871;28;20068;-84
2023/08/07 09:12:38;;;;;;;423.98;210.00;;;;;;;20.97;64.06;101453.34;5039292;28;20053;-85
2023/08/07 09:15:05;;;;;;;427.80;210.52;;;;;;;21.58;64.52;101467.97;5039235;28;20033;-85
2023/08/07 09:17:34;;;;;;;423.92;208.35;;;;;;;22.06;60.59;101472.53;5038995;28;20434;-85
2023/08/07 09:20:00;;;;;;;428.13;210.15;;;;;;;22.24;58.00;101468.91;5055770;28;20478;-83
2023/08/07 09:22:26;;;;;;;428.17;209.38;;;;;;;22.46;56.91;101469.97;5072110;28;20037;-84
2023/08/07 09:24:52;;;;;;;432.00;210.10;;;;;;;22.53;54.84;101467.13;5072218;28;20082;-83
2023/08/07 09:27:18;;;;;;;426.67;208.18;;;;;;;22.38;52.93;101471.16;5071072;28;20036;-81
2023/08/07 09:29:46;;;;;;;431.20;210.63;;;;;;;22.13;54.84;101463.13;5071050;28;20044;-81
2023/08/07 09:32:12;;;;;;;428.92;209.35;;;;;;;22.01;55.59;101462.25;5054829;28;20422;-81
2023/08/07 09:34:42;;;;;;;428.60;209.80;;;;;;;22.00;55.08;101460.59;5018932;28;20041;-80
2023/08/07 09:37:10;;;;;;;433.48;211.38;;;;;;;22.31;53.35;101456.75;5068748;28;20570;-77
2023/08/07 09:39:36;;;;;;;425.17;207.93;;;;;;;22.56;51.18;101474.88;5067329;28;20056;-81
2023/08/07 09:42:08;;;;;;;425.80;208.10;;;;;;;22.56;49.89;101459.25;5055293;28;20123;-80
2023/08/07 09:44:37;;;;;;;426.80;208.77;;;;;;;22.39;49.25;101472.00;5030394;28;20095;-81
2023/08/07 09:47:14;;;;;;;429.13;210.25;;;;;;;22.17;49.06;101463.47;5051635;28;20036;-81
2023/08/07 09:49:40;;;;;;;427.75;209.70;;;;;;;22.10;49.07;101465.50;5035403;28;20036;-81
2023/08/07 09:52:08;;;;;;;428.63;210.50;;;;;;;22.23;48.35;101454.38;5033715;28;20197;-81
2023/08/07 09:54:35;;;;;;;426.92;209.25;;;;;;;21.95;49.49;101469.50;5071671;28;20037;-82
2023/08/07 09:57:04;;;;;;;425.40;209.07;;;;;;;21.49;51.12;101426.44;5038807;28;20028;-81
2023/08/07 09:59:32;;;;;;;426.85;209.43;;;;;;;22.15;51.31;101468.38;5038466;28;20024;-81
2023/08/07 10:02:04;;;;;;;423.48;207.90;;;;;;;23.29;47.31;101457.03;5054976;28;20021;-81
2023/08/07 10:04:30;;;;;;;432.30;210.02;;;;;;;24.55;44.97;101465.03;5041894;28;20038;-80
2023/08/07 10:07:01;;;;;;;429.85;208.57;;;;;;;24.32;42.73;101438.56;5042405;28;20033;-81
2023/08/07 10:09:27;;;;;;;427.15;207.25;;;;;;;23.90;43.55;101460.13;5058952;28;20037;-82
2023/08/07 10:11:54;;;;;;;430.23;208.75;;;;;;;23.85;44.98;101457.28;5042096;28;20020;-81
2023/08/07 10:14:21;;;;;;;425.70;206.63;;;;;;;24.77;43.85;101447.78;5058299;28;20064;-82
2023/08/07 10:16:48;;;;;;;419.27;203.35;;;;;;;26.03;39.77;101440.41;5058687;28;20027;-82
2023/08/07 10:19:14;;;;;;;423.73;205.68;;;;;;;25.41;39.37;101428.78;5076144;28;20533;-81
2023/08/07 10:21:41;;;;;;;426.30;206.73;;;;;;;24.93;40.27;101446.06;5076352;28;20020;-81
2023/08/07 10:24:08;;;;;;;427.25;207.23;;;;;;;24.41;40.97;101430.72;5058699;28;20086;-82
2023/08/07 10:26:35;;;;;;;420.10;204.00;;;;;;;24.08;42.85;101437.91;5058222;28;20035;-82
2023/08/07 10:29:03;;;;;;;424.83;205.90;;;;;;;23.86;44.03;101439.72;5041826;28;20043;-82
2023/08/07 10:31:30;;;;;;;418.48;203.63;;;;;;;23.76;44.16;101434.03;5074752;28;20360;-81
2023/08/07 10:33:55;;;;;;;419.60;203.65;;;;;;;23.75;43.45;101438.72;5058328;28;20086;-82
2023/08/07 10:36:21;;;;;;;420.48;204.35;;;;;;;23.92;42.41;101439.56;5066276;28;20033;-79
2023/08/07 10:39:12;;;;;;;425.63;206.60;;;;;;;23.88;42.52;101437.56;5044768;28;20036;-82
2023/08/07 10:41:46;;;;;;;;;;;;;;;23.85;43.66;101432.56;5022271;28;20029;-82
2023/08/07 10:44:21;;;;;;;428.02;207.70;;;;;;;23.75;42.54;101432.38;5054622;28;19966;-79
2023/08/07 10:46:57;;;;;;;429.52;208.38;;;;;;;23.80;43.47;101435.22;5037488;28;20079;-79